Latest Coastal Weather Observations for Cape Leeuwin

IDW60701

Issued at 4:22 am WST Tuesday 7 July 2015 (issued every 10 minutes, with the page automatically refreshed every 10 minutes)

About coastal observations | Map of coastal stations | Coastal observations for WA | Marine services | Other Formats
Station Details ID: 009518 Name: CAPE LEEUWIN Lat: -34.37 Lon: 115.14 Height: 13.0 m
Data from the previous 72 hours. | See also: Recent months at Cape Leeuwin
Date/Time
WST
Temp

°C
Wind Pressure Rain
since 9am
mm
Weather Cloud Vis
km
Sea
Height
m
Swell
Dir
 
Speed
knots
Gust
knots
hPa Trend Height
m
Period
s
Dir
07/04:00am 16.7 WNW 21 25 1016.3 - 0.6 - - - - - - -
07/03:30am 16.2 WNW 25 31 1016.7 - 0.4 - - - - - - -
07/03:00am 17.7 NW 21 26 1016.6 - 0.4 - - - - - - -
07/02:30am 17.5 NW 21 25 1016.7 - 0.4 - - - - - - -
07/02:00am 17.5 NW 20 23 1016.8 - 0.4 - - - - - - -
07/01:30am 17.4 WNW 19 25 1017.0 - 0.4 - - - - - - -
07/01:00am 17.6 WNW 20 23 1017.1 - 0.4 - - - - - - -
07/12:30am 17.6 NW 17 22 1017.3 - 0.4 - - - - - - -
07/12:00am 17.2 NW 20 23 1017.5 - 0.4 - - - - - - -
 
Date/Time
WST
Temp

°C
Wind Pressure Rain
since 9am
mm
Weather Cloud Vis
km
Sea
Height
m
Swell
Dir
 
Speed
knots
Gust
knots
hPa Trend Height
m
Period
s
Dir
06/11:30pm 17.6 WNW 18 21 1017.8 - 0.4 - - - - - - -
06/11:00pm 17.4 NW 21 25 1017.9 - 0.4 - - - - - - -
06/10:30pm 17.5 WNW 21 27 1017.9 - 0.4 - - - - - - -
06/10:00pm 17.4 WNW 19 24 1018.1 - 0.4 - - - - - - -
06/09:30pm 17.4 WNW 22 26 1018.1 - 0.4 - - - - - - -
06/09:00pm 17.5 WNW 20 23 1018.2 - 0.4 - - - - - - -
06/08:30pm 17.6 WNW 18 22 1018.4 - 0.4 - - - - - - -
06/08:00pm 17.6 WNW 22 25 1018.5 - 0.4 - - - - - - -
06/07:30pm 17.7 WNW 24 28 1018.3 - 0.4 - - - - - - -
06/07:00pm 17.6 WNW 20 25 1018.2 - 0.4 - - - - - - -
06/06:30pm 17.4 WNW 17 21 1018.1 - 0.4 - - - - - - -
06/06:00pm 16.8 W 15 17 1018.1 - 0.4 Recent precip. - - - - - -
06/05:30pm 16.2 W 17 21 1018.2 - 0.4 - - - - - - -
06/05:00pm 16.3 WSW 16 20 1017.8 - 0.0 - - - - - - -
06/04:30pm 17.0 WSW 16 19 1017.7 - 0.0 - - - - - - -
06/04:00pm 17.3 W 17 19 1017.6 - 0.0 - - - - - - -
06/03:30pm 17.6 WNW 17 19 1017.4 - 0.0 - - - - - - -
06/03:00pm 18.4 NW 17 21 1017.2 - 0.0 - - - - - - -
06/02:30pm 18.7 WNW 17 19 1017.2 - 0.0 - - - - - - -
06/02:00pm 18.7 WNW 17 21 1016.9 - 0.0 - - - - - - -
06/01:30pm 18.4 WNW 17 20 1017.1 - 0.0 - - - - - - -
06/01:00pm 18.3 NW 17 20 1017.4 - 0.0 - - - - - - -
06/12:30pm 18.0 WNW 21 23 1017.8 - 0.0 - - - - - - -
06/12:00pm 18.3 NW 20 26 1018.1 - 0.0 - - - - - - -
06/11:55am 18.6 NW 18 26 1018.1 - 0.0 - - - - - - -
06/11:30am 18.0 N 9 14 1018.7 - 0.0 - - - - - - -
06/11:00am 17.0 NNE 10 15 1019.2 - 0.0 - - - - - - -
06/10:30am 16.9 N 12 16 1019.4 - 0.0 - - - - - - -
06/10:00am 15.2 NNE 13 17 1019.4 - 0.0 - - - - - - -
06/09:30am 14.8 NNE 14 19 1019.3 - 0.0 - - - - - - -
06/09:00am 14.6 NNE 15 22 1019.2 - 0.0 - - - - - - -
06/08:30am 14.4 NNE 16 22 1019.0 - 0.0 - - - - - - -
06/08:00am 13.8 NNE 15 21 1019.1 - 0.0 - - - - - - -
06/07:30am 13.9 NNE 15 19 1019.1 - 0.0 - - - - - - -
06/07:00am 13.6 NNE 15 19 1018.9 - 0.0 - - - - - - -
06/06:30am 14.0 N 12 16 1018.8 - 0.0 - - - - - - -
06/06:00am 13.8 NNE 12 17 1018.8 - 0.0 - - - - - - -
06/05:30am 14.0 NNE 10 13 1018.8 - 0.0 - - - - - - -
06/05:00am 13.9 N 9 11 1018.9 - 0.0 - - - - - - -
06/04:30am 13.4 NNE 10 13 1018.9 - 0.0 - - - - - - -
06/04:00am 13.4 NNE 9 11 1019.0 - 0.0 - - - - - - -
06/03:30am 15.2 N 8 11 1019.3 - 0.0 - - - - - - -
06/03:00am 15.5 N 9 11 1019.4 - 0.0 - - - - - - -
06/02:30am 14.7 N 9 11 1019.4 - 0.0 - - - - - - -
06/02:00am 14.7 N 7 9 1019.5 - 0.0 - - - - - - -
06/01:30am 15.4 N 7 8 1019.7 - 0.0 - - - - - - -
06/01:00am 15.2 N 5 6 1019.8 - 0.0 - - - - - - -
06/12:30am 16.8 WNW 7 10 1020.0 - 0.0 - - - - - - -
06/12:00am 17.0 W 12 15 1020.3 - 0.0 - - - - - - -
 
Date/Time
WST
Temp

°C
Wind Pressure Rain
since 9am
mm
Weather Cloud Vis
km
Sea
Height
m
Swell
Dir
 
Speed
knots
Gust
knots
hPa Trend Height
m
Period
s
Dir
05/11:30pm 16.8 WNW 12 14 1020.4 - 0.0 - - - - - - -
05/11:00pm 16.8 WNW 12 15 1020.5 - 0.0 - - - - - - -
05/10:30pm 16.9 WNW 12 15 1020.5 - 0.0 - - - - - - -
05/10:00pm 16.9 WNW 13 16 1020.6 - 0.0 - - - - - - -
05/09:30pm 16.8 WNW 12 15 1020.7 - 0.0 - - - - - - -
05/09:00pm 16.8 WNW 15 19 1020.7 - 0.0 - - - - - - -
05/08:30pm 17.0 WNW 12 14 1020.6 - 0.0 - - - - - - -
05/08:00pm 16.9 WNW 12 14 1020.6 - 0.0 - - - - - - -
05/07:30pm 17.0 WNW 13 17 1020.8 - 0.0 - - - - - - -
05/07:00pm 16.9 WNW 13 16 1020.6 - 0.0 - - - - - - -
05/06:30pm 17.1 WNW 14 17 1020.3 - 0.0 - - - - - - -
05/06:00pm 17.2 WNW 15 18 1020.0 - 0.0 - - - - - - -
05/05:30pm 17.2 NW 16 19 1019.9 - 0.0 - - - - - - -
05/05:00pm 17.5 NW 16 20 1019.8 - 0.0 - - - - - - -
05/04:30pm 17.5 NW 16 19 1019.7 - 0.0 - - - - - - -
05/04:00pm 18.0 NW 12 16 1019.6 - 0.0 - - - - - - -
05/03:30pm 18.0 NW 12 15 1019.5 - 0.0 - - - - - - -
05/03:00pm 18.3 NW 9 13 1019.5 - 0.0 - - - - - - -
05/02:30pm 18.0 NW 9 11 1019.6 - 0.0 - - - - - - -
05/02:00pm 18.2 WNW 10 13 1019.5 - 0.0 - - - - - - -
05/01:30pm 17.9 WNW 11 13 1019.7 - 0.0 - - - - - - -
05/01:00pm 17.9 WNW 10 13 1019.9 - 0.0 - - - - - - -
05/12:30pm 18.0 WNW 10 12 1020.2 - 0.0 - - - - - - -
05/12:00pm 18.3 NW 7 10 1020.6 - 0.0 - - - - - - -
05/11:30am 17.8 WNW 6 7 1021.0 - 0.0 - - - - - - -
05/11:00am 17.4 W 6 8 1021.1 - 0.0 - - - - - - -
05/10:30am 17.7 WSW 5 7 1021.4 - 0.0 - - - - - - -
05/10:00am 17.0 WSW 9 11 1021.6 - 0.0 - - - - - - -
05/09:30am 16.3 WSW 8 11 1021.4 - 0.0 - - - - - - -
05/09:00am 16.3 WSW 7 11 1021.2 - 1.6 - - - - - - -
05/08:30am 15.7 SW 10 14 1020.9 - 1.6 - - - - - - -
05/08:00am 15.3 WSW 10 13 1020.8 - 1.6 - - - - - - -
05/07:30am 15.6 WSW 15 18 1020.9 - 1.6 - - - - - - -
05/07:00am 15.6 SW 11 14 1020.6 - 1.6 - - - - - - -
05/06:30am 15.6 WSW 9 14 1020.3 - 1.6 - - - - - - -
05/06:00am 15.4 WSW 11 14 1020.1 - 1.6 - - - - - - -
05/05:30am 15.4 WSW 10 13 1020.1 - 1.6 - - - - - - -
05/05:00am 15.1 SW 8 10 1020.1 - 1.6 - - - - - - -
05/04:30am 15.2 SW 8 11 1020.0 - 1.6 - - - - - - -
05/04:00am 15.0 SW 10 14 1020.1 - 1.6 - - - - - - -
05/03:30am 14.9 SW 8 11 1020.0 - 1.6 - - - - - - -
05/03:00am 15.2 WSW 9 14 1020.2 - 1.6 - - - - - - -
05/02:30am 14.7 SSW 8 10 1020.3 - 1.6 - - - - - - -
05/02:00am 14.9 SSW 8 11 1020.2 - 1.6 - - - - - - -
05/01:30am 15.1 SW 10 13 1020.1 - 1.6 - - - - - - -
05/01:00am 15.4 SW 11 13 1020.1 - 1.6 - - - - - - -
05/12:30am 15.8 SW 14 19 1020.3 - 1.6 - - - - - - -
05/12:00am 15.8 SW 14 19 1020.3 - 1.6 - - - - - - -
 
Date/Time
WST
Temp

°C
Wind Pressure Rain
since 9am
mm
Weather Cloud Vis
km
Sea
Height
m
Swell
Dir
 
Speed
knots
Gust
knots
hPa Trend Height
m
Period
s
Dir
04/11:30pm 15.9 SW 15 20 1020.2 - 1.6 - - - - - - -
04/11:00pm 16.0 SW 15 19 1020.1 - 1.6 - - - - - - -
04/10:30pm 16.1 SW 15 21 1020.0 - 1.6 - - - - - - -
04/10:00pm 16.0 SW 15 19 1019.9 - 1.6 - - - - - - -
04/09:30pm 15.9 SW 15 18 1019.9 - 1.6 - - - - - - -
04/09:00pm 15.6 SW 20 25 1019.8 - 0.6 Rain - - - - - -
04/08:51pm 16.8 W 21 30 1019.5 - 0.0 - - - - - - -
04/08:30pm 18.0 WNW 20 25 1019.3 - 0.0 - - - - - - -
04/08:00pm 17.4 WNW 23 29 1019.4 - 0.0 - - - - - - -
04/07:30pm 18.0 WNW 22 26 1019.2 - 0.0 - - - - - - -
04/07:00pm 17.7 WNW 22 25 1019.0 - 0.0 - - - - - - -
04/06:30pm 17.9 WNW 23 26 1019.0 - 0.0 - - - - - - -
04/06:00pm 17.8 WNW 20 24 1019.0 - 0.0 - - - - - - -
04/05:30pm 17.6 WNW 21 23 1019.1 - 0.0 - - - - - - -
04/05:00pm 17.7 WNW 19 23 1019.2 - 0.0 - - - - - - -
04/04:30pm 17.8 WNW 19 22 1019.2 - 0.0 - - - - - - -
04/04:00pm 17.7 WNW 20 24 1019.3 - 0.0 - - - - - - -
04/03:30pm 18.1 WNW 21 26 1019.2 - 0.0 - - - - - - -
04/03:00pm 17.9 WNW 20 25 1019.1 - 0.0 - - - - - - -
04/02:30pm 17.9 WNW 22 26 1019.2 - 0.0 - - - - - - -
04/02:00pm 17.7 WNW 20 24 1019.3 - 0.0 - - - - - - -
04/01:30pm 17.8 WNW 23 27 1019.4 - 0.0 - - - - - - -
04/01:00pm 18.0 WNW 23 26 1019.6 - 0.0 - - - - - - -
04/12:30pm 18.1 WNW 23 27 1019.9 - 0.0 - - - - - - -
04/12:00pm 18.1 WNW 23 26 1020.1 - 0.0 - - - - - - -
04/11:30am 18.1 WNW 21 25 1020.4 - 0.0 - - - - - - -
04/11:00am 18.5 WNW 22 26 1020.7 - 0.0 - - - - - - -
04/10:30am 18.4 WNW 20 27 1021.2 - 0.0 - - - - - - -
04/10:00am 17.9 WNW 19 23 1021.3 - 0.0 - - - - - - -
04/09:30am 17.8 WNW 20 25 1021.0 - 0.0 - - - - - - -
04/09:00am 17.7 W 21 25 1020.9 - 0.2 - - - - - - -
04/08:30am 17.7 W 18 22 1021.0 - 0.2 - - - - - - -
04/08:00am 17.5 WNW 16 21 1020.8 - 0.2 - - - - - - -
04/07:30am 17.5 WNW 15 18 1020.9 - 0.2 - - - - - - -
04/07:00am 17.3 WNW 18 23 1020.9 - 0.2 - - - - - - -
04/06:30am 17.4 W 18 21 1020.7 - 0.2 - - - - - - -
04/06:00am 17.5 WNW 17 21 1020.4 - 0.2 - - - - - - -
04/05:30am 17.4 WNW 15 19 1020.4 - 0.2 - - - - - - -
04/05:00am 17.7 NW 16 21 1020.6 - 0.2 - - - - - - -
04/04:30am 17.7 NW 15 19 1020.7 - 0.2 - - - - - - -

Other Formats:

Comma delimited format used in spreadsheet applications
http://www.bom.gov.au/fwo/IDW60701/IDW60701.94601.axf

JavaScript Object Notation format (JSON) in row-major order
http://www.bom.gov.au/fwo/IDW60701/IDW60701.94601.json